createdAt,value
2018-05-17T00:00:50.272Z,4.80
2018-05-17T00:03:18.788Z,3.17
2018-05-17T00:05:48.290Z,2.70
2018-05-17T00:08:17.598Z,3.97
2018-05-17T00:10:47.612Z,4.07
2018-05-17T00:13:17.861Z,5.50
2018-05-17T00:15:49.301Z,6.10
2018-05-17T00:18:17.933Z,5.47
2018-05-17T00:20:46.620Z,5.63
2018-05-17T00:23:15.023Z,5.90
2018-05-17T00:25:44.432Z,3.30
2018-05-17T00:28:12.929Z,5.07
2018-05-17T00:30:42.390Z,5.30
2018-05-17T00:33:14.452Z,5.20
2018-05-17T00:35:43.364Z,5.07
2018-05-17T00:38:13.961Z,9.47
2018-05-17T00:40:42.531Z,7.63
2018-05-17T00:43:11.305Z,6.70
2018-05-17T00:45:40.636Z,5.07
2018-05-17T00:48:09.522Z,6.60
2018-05-17T00:50:37.918Z,8.53
2018-05-17T00:53:18.477Z,8.23
2018-05-17T00:55:47.263Z,7.33
2018-05-17T00:58:16.675Z,6.40
2018-05-17T01:00:46.171Z,10.07
2018-05-17T01:03:14.701Z,8.77
2018-05-17T01:05:43.955Z,11.97
2018-05-17T01:08:13.968Z,10.53
2018-05-17T01:10:43.670Z,10.43
2018-05-17T01:13:12.235Z,15.10
2018-05-17T01:15:42.089Z,13.03
2018-05-17T01:18:10.759Z,13.20
2018-05-17T01:20:39.565Z,12.80
2018-05-17T01:23:09.772Z,12.97
2018-05-17T01:25:38.581Z,10.00
2018-05-17T01:28:07.088Z,13.87
2018-05-17T01:30:35.672Z,16.53
2018-05-17T01:33:04.307Z,13.27
2018-05-17T01:35:33.014Z,10.20
2018-05-17T01:38:17.641Z,19.90
2018-05-17T01:40:46.502Z,11.20
2018-05-17T01:43:15.945Z,14.87
2018-05-17T01:45:44.939Z,15.67
2018-05-17T01:48:13.637Z,12.40
2018-05-17T01:50:42.211Z,15.17
2018-05-17T01:53:10.723Z,14.57
2018-05-17T01:55:41.942Z,13.93
2018-05-17T01:58:10.717Z,20.07
2018-05-17T02:00:39.417Z,14.90
2018-05-17T02:03:07.993Z,17.87
2018-05-17T02:05:36.509Z,14.03
2018-05-17T02:08:06.044Z,16.87
2018-05-17T02:10:35.588Z,14.53
2018-05-17T02:13:04.265Z,14.77
2018-05-17T02:15:32.851Z,13.80
2018-05-17T02:18:01.643Z,15.73
2018-05-17T02:20:31.099Z,15.90
2018-05-17T02:23:00.540Z,12.67
2018-05-17T02:25:29.134Z,16.40
2018-05-17T02:27:57.811Z,12.67
2018-05-17T02:30:26.446Z,13.60
2018-05-17T02:32:56.315Z,17.73
2018-05-17T02:35:27.362Z,14.73
2018-05-17T02:37:55.880Z,11.83
2018-05-17T02:40:26.021Z,14.00
2018-05-17T02:42:54.461Z,14.43
2018-05-17T02:45:23.022Z,15.30
2018-05-17T02:47:52.480Z,14.00
2018-05-17T02:50:20.999Z,13.93
2018-05-17T02:52:50.612Z,9.80
2018-05-17T02:55:19.956Z,10.33
2018-05-17T02:57:49.310Z,11.10
2018-05-17T03:00:18.133Z,14.23
2018-05-17T03:02:46.596Z,12.47
2018-05-17T03:05:15.276Z,14.67
2018-05-17T03:07:43.882Z,9.50
2018-05-17T03:10:13.972Z,12.83
2018-05-17T03:12:42.679Z,14.40
2018-05-17T03:15:11.245Z,13.83
2018-05-17T03:17:39.992Z,13.50
2018-05-17T03:20:09.021Z,9.77
2018-05-17T03:22:39.009Z,10.87
2018-05-17T03:25:07.468Z,13.43
2018-05-17T03:27:36.707Z,12.13
2018-05-17T03:30:05.307Z,14.10
2018-05-17T03:32:33.785Z,15.93
2018-05-17T03:35:02.371Z,12.87
2018-05-17T03:37:31.067Z,11.93
2018-05-17T03:39:59.746Z,15.83
2018-05-17T03:42:28.412Z,10.23
2018-05-17T03:44:57.926Z,10.07
2018-05-17T03:47:26.404Z,9.77
2018-05-17T03:49:54.995Z,14.63
2018-05-17T03:52:23.728Z,10.50
2018-05-17T03:54:53.281Z,13.40
2018-05-17T03:57:22.633Z,22.80
2018-05-17T03:59:51.946Z,14.70
2018-05-17T04:02:32.860Z,20.23
2018-05-17T04:05:14.275Z,14.40
2018-05-17T04:07:43.134Z,13.27
2018-05-17T04:10:11.604Z,21.37
2018-05-17T04:12:40.300Z,17.57
2018-05-17T04:15:09.564Z,19.93
2018-05-17T04:17:38.813Z,15.93
2018-05-17T04:20:07.486Z,19.10
2018-05-17T04:22:37.687Z,18.13
2018-05-17T04:25:06.365Z,19.77
2018-05-17T04:27:34.967Z,21.70
2018-05-17T04:30:03.771Z,23.33
2018-05-17T04:32:33.165Z,17.33
2018-05-17T04:35:01.768Z,19.87
2018-05-17T04:37:30.435Z,19.43
2018-05-17T04:39:58.969Z,22.60
2018-05-17T04:42:27.470Z,22.67
2018-05-17T04:44:56.331Z,21.27
2018-05-17T04:47:24.969Z,20.13
2018-05-17T04:49:53.585Z,14.33
2018-05-17T04:52:22.236Z,21.87
2018-05-17T04:54:50.909Z,27.57
2018-05-17T04:57:20.197Z,22.03
2018-05-17T04:59:48.717Z,23.40
2018-05-17T05:02:17.291Z,20.37
2018-05-17T05:04:45.979Z,25.33
2018-05-17T05:07:15.485Z,20.50
2018-05-17T05:09:44.277Z,21.97
2018-05-17T05:12:12.787Z,19.40
2018-05-17T05:14:42.962Z,25.93
2018-05-17T05:17:11.554Z,33.93
2018-05-17T05:19:40.125Z,36.83
2018-05-17T05:22:08.691Z,43.50
2018-05-17T05:24:37.206Z,42.40
2018-05-17T05:27:05.784Z,41.87
2018-05-17T05:29:34.455Z,39.17
2018-05-17T05:32:03.127Z,35.27
2018-05-17T05:34:32.566Z,40.60
2018-05-17T05:37:01.863Z,34.97
2018-05-17T05:39:30.350Z,36.83
2018-05-17T05:41:58.923Z,42.43
2018-05-17T05:44:28.612Z,25.47
2018-05-17T05:46:57.936Z,47.43
2018-05-17T05:49:26.651Z,39.13
2018-05-17T05:51:55.304Z,29.27
2018-05-17T05:54:23.891Z,33.10
2018-05-17T05:56:52.339Z,39.47
2018-05-17T05:59:21.779Z,29.67
2018-05-17T06:01:50.776Z,29.80
2018-05-17T06:04:19.441Z,29.03
2018-05-17T06:06:48.809Z,50.53
2018-05-17T06:09:17.604Z,20.07
2018-05-17T06:11:46.214Z,22.10
2018-05-17T06:14:14.769Z,25.53
2018-05-17T06:16:43.495Z,25.87
2018-05-17T06:19:12.156Z,14.90
2018-05-17T06:21:41.689Z,23.83
2018-05-17T06:24:10.339Z,16.73
2018-05-17T06:26:38.964Z,21.13
2018-05-17T06:29:07.534Z,21.80
2018-05-17T06:31:36.454Z,28.53
2018-05-17T06:34:04.968Z,38.37
2018-05-17T06:36:34.253Z,16.03
2018-05-17T06:39:02.734Z,27.30
2018-05-17T06:41:32.868Z,20.17
2018-05-17T06:44:01.531Z,33.80
2018-05-17T06:46:30.783Z,33.17
2018-05-17T06:48:59.480Z,24.63
2018-05-17T06:51:28.070Z,27.83
2018-05-17T06:53:56.556Z,11.93
2018-05-17T06:56:25.007Z,16.30
2018-05-17T06:58:53.462Z,12.03
2018-05-17T07:01:22.802Z,13.23
2018-05-17T07:03:51.389Z,19.60
2018-05-17T07:06:20.384Z,11.23
2018-05-17T07:08:49.088Z,19.80
2018-05-17T07:13:54.423Z,10.77
2018-05-17T07:16:24.423Z,13.03
2018-05-17T07:18:53.223Z,15.27
2018-05-17T07:21:21.930Z,14.27
2018-05-17T07:23:51.401Z,11.83
2018-05-17T07:26:20.276Z,17.37
2018-05-17T07:28:49.253Z,12.83
2018-05-17T07:31:18.201Z,15.07
2018-05-17T07:33:47.806Z,18.73
2018-05-17T07:36:18.895Z,15.73
2018-05-17T07:38:48.165Z,19.40
2018-05-17T07:41:17.507Z,19.07
2018-05-17T07:43:46.099Z,19.07
2018-05-17T07:46:15.653Z,18.50
2018-05-17T07:48:45.244Z,14.67
2018-05-17T07:51:14.587Z,17.77
2018-05-17T07:53:43.341Z,15.70
2018-05-17T07:56:11.860Z,19.80
2018-05-17T07:58:41.177Z,21.00
2018-05-17T08:01:09.961Z,21.33
2018-05-17T08:03:38.642Z,20.90
2018-05-17T08:06:07.262Z,17.13
2018-05-17T08:08:36.787Z,13.13
2018-05-17T08:11:07.524Z,15.80
2018-05-17T08:13:36.473Z,18.97
2018-05-17T08:16:05.800Z,18.23
2018-05-17T08:18:34.294Z,11.97
2018-05-17T08:21:02.834Z,13.77
2018-05-17T08:23:31.455Z,10.63
2018-05-17T08:26:02.686Z,10.47
2018-05-17T08:28:31.291Z,12.33
2018-05-17T08:31:00.476Z,12.83
2018-05-17T08:33:29.078Z,12.13
2018-05-17T08:35:58.557Z,11.10
2018-05-17T08:38:27.003Z,10.70
2018-05-17T08:40:55.763Z,14.93
2018-05-17T08:43:25.284Z,14.20
2018-05-17T08:45:54.544Z,12.67
2018-05-17T08:48:23.910Z,9.63
2018-05-17T08:50:54.166Z,14.47
2018-05-17T08:53:24.593Z,11.33
2018-05-17T08:55:54.504Z,14.60
2018-05-17T08:58:23.159Z,15.30
2018-05-17T09:00:51.770Z,11.50
2018-05-17T09:03:20.553Z,14.07
2018-05-17T09:05:49.118Z,9.93
2018-05-17T09:08:17.631Z,16.53
2018-05-17T09:10:47.852Z,13.03
2018-05-17T09:13:16.427Z,11.67
2018-05-17T09:15:45.122Z,10.33
2018-05-17T09:18:13.683Z,9.43
2018-05-17T09:20:42.389Z,12.30
2018-05-17T09:23:11.176Z,13.70
2018-05-17T09:25:39.871Z,8.83
2018-05-17T09:28:09.364Z,11.30
2018-05-17T09:30:39.593Z,12.50
2018-05-17T09:33:08.124Z,14.17
2018-05-17T09:35:37.356Z,15.50
2018-05-17T09:38:05.976Z,12.93
2018-05-17T09:40:34.831Z,17.40
2018-05-17T09:43:04.034Z,11.47
2018-05-17T09:45:33.098Z,11.67
2018-05-17T09:48:01.725Z,8.95
2018-05-17T09:50:30.400Z,7.30
2018-05-17T09:52:58.980Z,9.80
2018-05-17T09:55:27.512Z,6.93
2018-05-17T09:57:57.012Z,10.02
2018-05-17T10:00:26.369Z,10.25
2018-05-17T10:02:54.922Z,11.93
2018-05-17T10:05:23.541Z,9.57
2018-05-17T10:07:53.511Z,14.43
2018-05-17T10:10:23.491Z,12.30
2018-05-17T10:12:51.971Z,9.73
2018-05-17T10:15:20.645Z,8.23
2018-05-17T10:17:50.976Z,13.37
2018-05-17T10:20:20.017Z,12.02
2018-05-17T10:22:48.855Z,7.80
2018-05-17T10:25:17.648Z,13.62
2018-05-17T10:27:47.791Z,10.77
2018-05-17T10:30:17.808Z,11.07
2018-05-17T10:32:46.407Z,9.68
2018-05-17T10:35:15.645Z,8.80
2018-05-17T10:37:44.737Z,11.18
2018-05-17T10:40:15.345Z,10.90
2018-05-17T10:42:43.980Z,13.30
2018-05-17T10:45:12.591Z,13.32
2018-05-17T10:47:41.844Z,11.57
2018-05-17T10:50:10.645Z,10.18
2018-05-17T10:52:39.322Z,19.73
2018-05-17T10:55:07.856Z,11.55
2018-05-17T10:57:37.205Z,15.68
2018-05-17T11:00:05.985Z,10.43
2018-05-17T11:02:34.584Z,13.35
2018-05-17T11:05:03.044Z,9.75
2018-05-17T11:07:32.446Z,11.75
2018-05-17T11:10:01.136Z,9.07
2018-05-17T11:12:30.448Z,7.97
2018-05-17T11:14:59.298Z,6.80
2018-05-17T11:17:27.915Z,5.82
2018-05-17T11:19:56.655Z,5.03
2018-05-17T11:22:26.076Z,5.95
2018-05-17T11:24:55.212Z,4.50
2018-05-17T11:27:24.423Z,4.50
2018-05-17T11:29:54.947Z,5.28
2018-05-17T11:32:25.057Z,6.15
2018-05-17T11:34:53.737Z,9.57
2018-05-17T11:37:22.290Z,4.93
2018-05-17T11:39:50.967Z,8.27
2018-05-17T11:42:19.585Z,6.07
2018-05-17T11:44:48.765Z,5.07
2018-05-17T11:47:18.348Z,5.27
2018-05-17T11:49:46.866Z,9.03
2018-05-17T11:52:15.568Z,3.07
2018-05-17T11:54:45.129Z,4.67
2018-05-17T11:57:13.821Z,3.97
2018-05-17T11:59:43.237Z,6.10
2018-05-17T12:02:12.034Z,8.50
2018-05-17T12:04:40.953Z,5.17
2018-05-17T12:07:09.581Z,5.40
2018-05-17T12:09:38.701Z,3.50
2018-05-17T12:12:07.700Z,4.00
2018-05-17T12:14:38.138Z,9.87
2018-05-17T12:17:06.924Z,4.43
2018-05-17T12:19:35.500Z,3.90
2018-05-17T12:22:04.093Z,2.60
2018-05-17T12:24:35.223Z,3.80
2018-05-17T12:27:03.748Z,3.53
2018-05-17T12:29:32.237Z,10.43
2018-05-17T12:32:02.440Z,5.50
2018-05-17T12:34:32.346Z,2.73
2018-05-17T12:37:01.179Z,3.23
2018-05-17T12:39:29.725Z,5.25
2018-05-17T12:42:01.049Z,6.87
2018-05-17T12:44:29.792Z,6.30
2018-05-17T12:46:59.124Z,5.28
2018-05-17T12:49:27.717Z,3.22
2018-05-17T12:51:56.199Z,7.07
2018-05-17T12:54:25.599Z,2.83
2018-05-17T12:56:55.810Z,2.95
2018-05-17T12:59:24.472Z,3.05
2018-05-17T13:01:53.888Z,3.83
2018-05-17T13:04:22.663Z,5.60
2018-05-17T13:06:52.983Z,2.85
2018-05-17T13:09:21.564Z,4.50
2018-05-17T13:11:50.088Z,4.87
2018-05-17T13:14:18.672Z,5.28
2018-05-17T13:16:47.250Z,4.03
2018-05-17T13:19:16.197Z,1.87
2018-05-17T13:21:45.597Z,2.03
2018-05-17T13:24:14.653Z,3.97
2018-05-17T13:26:43.757Z,1.83
2018-05-17T13:29:12.981Z,5.00
2018-05-17T13:31:41.832Z,2.08
2018-05-17T13:34:11.099Z,2.15
2018-05-17T13:36:39.776Z,3.90
2018-05-17T13:39:08.390Z,4.03
2018-05-17T13:41:37.107Z,3.78
2018-05-17T13:44:07.402Z,2.55
2018-05-17T13:46:35.891Z,2.25
2018-05-17T13:49:04.371Z,3.03
2018-05-17T13:51:32.837Z,2.75
2018-05-17T13:54:01.832Z,2.97
2018-05-17T13:56:31.418Z,3.37
2018-05-17T13:58:59.874Z,1.40
2018-05-17T14:01:29.119Z,2.30
2018-05-17T14:03:57.765Z,4.57
2018-05-17T14:06:27.145Z,3.65
2018-05-17T14:08:56.509Z,2.78
2018-05-17T14:11:25.060Z,1.98
2018-05-17T14:13:53.897Z,2.90
2018-05-17T14:16:22.785Z,4.03
2018-05-17T14:18:52.032Z,3.97
2018-05-17T14:21:21.041Z,3.78
2018-05-17T14:23:49.652Z,2.17
2018-05-17T14:26:18.452Z,3.17
2018-05-17T14:28:46.832Z,2.30
2018-05-17T14:31:15.235Z,2.55
2018-05-17T14:33:43.776Z,5.25
2018-05-17T14:36:12.208Z,3.83
2018-05-17T14:38:42.805Z,3.20
2018-05-17T14:41:13.517Z,5.05
2018-05-17T14:43:42.579Z,2.25
2018-05-17T14:46:11.895Z,3.67
2018-05-17T14:48:41.166Z,3.70
2018-05-17T14:51:10.413Z,3.37
2018-05-17T14:53:38.884Z,2.55
2018-05-17T14:56:07.574Z,1.42
2018-05-17T14:58:36.007Z,2.37
2018-05-17T15:01:05.303Z,2.10
2018-05-17T15:03:35.375Z,2.05
2018-05-17T15:06:03.834Z,3.12
2018-05-17T15:08:32.450Z,2.03
2018-05-17T15:11:06.723Z,3.90
2018-05-17T15:13:35.952Z,7.97
2018-05-17T15:16:04.319Z,4.07
2018-05-17T15:18:32.715Z,2.47
2018-05-17T15:21:01.093Z,2.67
2018-05-17T15:23:29.518Z,1.60
2018-05-17T15:25:59.389Z,2.45
2018-05-17T15:28:27.696Z,2.33
2018-05-17T15:30:56.154Z,3.08
2018-05-17T15:33:24.789Z,1.55
2018-05-17T15:35:53.234Z,3.50
2018-05-17T15:38:21.734Z,1.60
2018-05-17T15:40:50.991Z,1.70
2018-05-17T15:43:20.391Z,1.65
2018-05-17T15:45:48.875Z,2.12
2018-05-17T15:48:17.225Z,3.30
2018-05-17T15:50:45.601Z,1.77
2018-05-17T15:53:14.769Z,2.62
2018-05-17T15:55:43.305Z,1.70
2018-05-17T15:58:12.404Z,3.60
2018-05-17T16:00:42.015Z,2.42
2018-05-17T16:03:10.535Z,3.28
2018-05-17T16:05:38.980Z,2.67
2018-05-17T16:08:07.510Z,3.35
2018-05-17T16:10:36.957Z,2.17
2018-05-17T16:13:05.437Z,3.03
2018-05-17T16:15:34.051Z,1.30
2018-05-17T16:18:03.145Z,2.85
2018-05-17T16:20:32.626Z,2.40
2018-05-17T16:23:01.208Z,1.92
2018-05-17T16:25:29.582Z,3.47
2018-05-17T16:27:58.066Z,1.70
2018-05-17T16:30:26.650Z,5.45
2018-05-17T16:32:55.100Z,3.35
2018-05-17T16:35:24.014Z,2.65
2018-05-17T16:37:52.438Z,5.18
2018-05-17T16:40:22.537Z,3.40
2018-05-17T16:42:51.372Z,3.37
2018-05-17T16:45:19.676Z,2.28
2018-05-17T16:47:48.419Z,1.92
2018-05-17T16:50:16.854Z,3.83
2018-05-17T16:52:45.609Z,8.13
2018-05-17T16:55:14.958Z,2.40
2018-05-17T16:57:43.604Z,2.17
2018-05-17T17:00:12.030Z,3.58
2018-05-17T17:02:40.383Z,5.12
2018-05-17T17:05:09.104Z,2.95
2018-05-17T17:07:37.798Z,3.30
2018-05-17T17:10:07.017Z,9.75
2018-05-17T17:12:36.247Z,5.20
2018-05-17T17:15:04.759Z,5.55
2018-05-17T17:17:33.943Z,4.25
2018-05-17T17:20:02.543Z,5.50
2018-05-17T17:22:32.743Z,4.40
2018-05-17T17:25:01.972Z,2.30
2018-05-17T17:27:30.645Z,3.47
2018-05-17T17:29:58.967Z,5.40
2018-05-17T17:32:28.234Z,3.40
2018-05-17T17:34:56.702Z,5.20
2018-05-17T17:37:25.154Z,5.13
2018-05-17T17:39:53.544Z,5.07
2018-05-17T17:42:21.949Z,5.10
2018-05-17T17:44:50.425Z,5.60
2018-05-17T17:47:18.806Z,5.70
2018-05-17T17:49:47.996Z,2.90
2018-05-17T17:52:16.470Z,3.60
2018-05-17T17:54:44.875Z,6.33
2018-05-17T17:57:13.266Z,4.60
2018-05-17T17:59:42.630Z,3.00
2018-05-17T18:02:11.122Z,5.03
2018-05-17T18:04:39.471Z,3.00
2018-05-17T18:07:09.132Z,7.97
2018-05-17T18:09:38.374Z,6.40
2018-05-17T18:12:06.811Z,3.97
2018-05-17T18:14:36.055Z,5.73
2018-05-17T18:17:04.535Z,4.73
2018-05-17T18:19:32.973Z,3.20
2018-05-17T18:22:01.548Z,5.57
2018-05-17T18:24:30.667Z,5.47
2018-05-17T18:26:59.946Z,4.20
2018-05-17T18:29:29.193Z,5.70
2018-05-17T18:31:57.782Z,9.00
2018-05-17T18:34:26.203Z,11.90
2018-05-17T18:36:55.609Z,7.60
2018-05-17T18:39:24.271Z,7.10
2018-05-17T18:41:53.541Z,7.23
2018-05-17T18:44:21.958Z,8.13
2018-05-17T18:46:50.409Z,9.77
2018-05-17T18:49:19.103Z,6.10
2018-05-17T18:51:47.544Z,6.07
2018-05-17T18:54:17.552Z,4.73
2018-05-17T18:56:46.723Z,6.97
2018-05-17T18:59:15.313Z,4.50
2018-05-17T19:04:31.551Z,4.73
2018-05-17T19:07:00.727Z,9.77
2018-05-17T19:09:29.854Z,8.33
2018-05-17T19:11:58.349Z,9.10
2018-05-17T19:14:26.744Z,7.80
2018-05-17T19:16:55.943Z,7.37
2018-05-17T19:19:24.633Z,7.03
2018-05-17T19:21:53.019Z,8.57
2018-05-17T19:24:21.499Z,7.77
2018-05-17T19:26:50.057Z,9.97
2018-05-17T19:29:18.537Z,6.90
2018-05-17T19:31:47.095Z,5.53
2018-05-17T19:34:16.528Z,7.23
2018-05-17T19:36:45.823Z,9.80
2018-05-17T19:39:14.304Z,5.33
2018-05-17T19:41:43.082Z,5.97
2018-05-17T19:44:11.436Z,7.03
2018-05-17T19:46:40.667Z,4.63
2018-05-17T19:49:09.190Z,7.10
2018-05-17T19:51:37.494Z,3.97
2018-05-17T19:54:06.839Z,5.90
2018-05-17T19:56:35.288Z,4.70
2018-05-17T19:59:03.700Z,4.33
2018-05-17T20:01:32.181Z,10.00
2018-05-17T20:04:01.424Z,6.33
2018-05-17T20:06:30.913Z,6.30
2018-05-17T20:09:00.930Z,6.10
2018-05-17T20:11:29.867Z,5.70
2018-05-17T20:13:58.475Z,5.57
2018-05-17T20:16:26.859Z,5.00
2018-05-17T20:18:55.539Z,8.47
2018-05-17T20:21:23.884Z,3.60
2018-05-17T20:23:53.102Z,5.10
2018-05-17T20:26:21.686Z,4.63
2018-05-17T20:28:50.152Z,10.80
2018-05-17T20:31:18.652Z,8.53
2018-05-17T20:33:47.129Z,7.17
2018-05-17T20:36:16.246Z,6.47
2018-05-17T20:38:45.053Z,3.60
2018-05-17T20:41:15.206Z,9.20
2018-05-17T20:43:44.868Z,7.03
2018-05-17T20:46:13.370Z,8.67
2018-05-17T20:48:41.883Z,5.50
2018-05-17T20:51:12.427Z,8.37
2018-05-17T20:53:41.871Z,8.50
2018-05-17T20:56:10.933Z,6.17
2018-05-17T20:58:39.304Z,3.73
2018-05-17T21:01:07.800Z,5.43
2018-05-17T21:03:36.270Z,9.93
2018-05-17T21:06:05.576Z,10.27
2018-05-17T21:08:34.062Z,11.63
2018-05-17T21:11:02.970Z,15.40
2018-05-17T21:13:31.714Z,8.70
2018-05-17T21:16:00.393Z,13.03
2018-05-17T21:18:29.681Z,15.10
2018-05-17T21:20:58.752Z,7.90
2018-05-17T21:23:27.468Z,9.77
2018-05-17T21:25:57.268Z,7.37
2018-05-17T21:28:25.793Z,14.53
2018-05-17T21:30:54.474Z,14.93
2018-05-17T21:33:23.250Z,4.80
2018-05-17T21:35:53.085Z,7.67
2018-05-17T21:38:21.667Z,14.37
2018-05-17T21:40:50.256Z,13.93
2018-05-17T21:43:18.704Z,8.70
2018-05-17T21:45:47.895Z,15.20
2018-05-17T21:48:16.620Z,9.30
2018-05-17T21:50:45.520Z,7.47
2018-05-17T21:53:16.232Z,7.70
2018-05-17T21:55:44.928Z,15.07
2018-05-17T21:58:13.644Z,8.07
2018-05-17T22:00:42.150Z,14.67
2018-05-17T22:03:11.701Z,13.93
2018-05-17T22:05:40.928Z,25.20
2018-05-17T22:08:10.398Z,8.40
2018-05-17T22:10:38.920Z,8.07
2018-05-17T22:13:07.628Z,7.43
2018-05-17T22:15:36.153Z,8.87
2018-05-17T22:18:04.584Z,13.87
2018-05-17T22:20:34.031Z,6.17
2018-05-17T22:23:02.511Z,6.93
2018-05-17T22:25:30.958Z,5.47
2018-05-17T22:27:59.370Z,8.50
2018-05-17T22:30:27.786Z,11.03
2018-05-17T22:32:57.766Z,4.70
2018-05-17T22:35:26.277Z,6.33
2018-05-17T22:37:55.546Z,8.03
2018-05-17T22:40:24.029Z,6.87
2018-05-17T22:42:52.519Z,16.47
2018-05-17T22:45:20.988Z,11.83
2018-05-17T22:47:49.468Z,5.80
2018-05-17T22:50:17.953Z,11.53
2018-05-17T22:52:47.212Z,6.57
2018-05-17T22:55:16.445Z,7.90
2018-05-17T22:57:56.858Z,6.13
2018-05-17T23:00:25.221Z,11.60
2018-05-17T23:02:53.666Z,6.47
2018-05-17T23:05:22.146Z,9.80
2018-05-17T23:07:50.842Z,7.90
2018-05-17T23:10:19.220Z,5.93
2018-05-17T23:12:47.590Z,10.60
2018-05-17T23:15:16.069Z,3.73
2018-05-17T23:17:44.590Z,10.67
2018-05-17T23:20:13.238Z,7.37
2018-05-17T23:22:41.668Z,5.07
2018-05-17T23:25:11.136Z,5.43
2018-05-17T23:27:39.606Z,4.87
2018-05-17T23:30:08.027Z,8.90
2018-05-17T23:32:40.563Z,4.90
2018-05-17T23:35:09.800Z,5.10
2018-05-17T23:37:38.279Z,7.40
2018-05-17T23:43:17.278Z,11.93
2018-05-17T23:45:47.609Z,7.67
2018-05-17T23:48:16.011Z,5.90
2018-05-17T23:50:44.670Z,5.70
2018-05-17T23:53:13.343Z,6.27
2018-05-17T23:55:41.739Z,7.73
2018-05-17T23:58:10.325Z,6.23
